Time;durP1;ratioP1;P1;durP2;ratioP2;P2;SDS_P1;SDS_P2;PMS_P1;PMS_P2;Temp;Humidity;BMP_temperature;BMP_pressure;BME280_temperature;BME280_humidity;BME280_pressure;Samples;Min_cycle;Max_cycle;Signal;HPM_P1;HPM_P2
2022/04/03 00:00:07;;;;;;;38.08;20.92;;;;;;;-0.55;96.99;97290.05;1743314;82;21294;-58
2022/04/03 00:02:36;;;;;;;39.85;20.62;;;;;;;-0.57;97.01;97288.14;1742805;81;21001;-59
2022/04/03 00:05:04;;;;;;;37.88;19.62;;;;;;;-0.66;97.46;97286.84;1743142;82;21058;-58
2022/04/03 00:07:32;;;;;;;37.67;20.35;;;;;;;-0.72;97.72;97289.88;1742836;81;21443;-59
2022/04/03 00:10:00;;;;;;;38.78;19.02;;;;;;;-0.69;97.66;97284.09;1742875;82;21069;-58
2022/04/03 00:12:27;;;;;;;33.98;17.15;;;;;;;-0.69;97.49;97289.41;1743060;80;21420;-58
2022/04/03 00:14:54;;;;;;;30.00;16.80;;;;;;;-0.75;97.55;97298.31;1743244;81;20971;-59
2022/04/03 00:17:21;;;;;;;28.90;17.67;;;;;;;-0.80;97.56;97293.37;1742774;81;21486;-58
2022/04/03 00:19:48;;;;;;;29.72;16.87;;;;;;;-0.77;97.41;97286.25;1743028;82;21001;-58
2022/04/03 00:22:15;;;;;;;25.97;14.45;;;;;;;-0.70;97.08;97287.80;1742941;82;21054;-59
2022/04/03 00:24:43;;;;;;;28.15;15.60;;;;;;;-0.65;96.85;97289.27;1742870;82;21190;-58
2022/04/03 00:27:10;;;;;;;39.05;18.48;;;;;;;-0.68;96.83;97291.59;1743086;80;21009;-58
2022/04/03 00:29:37;;;;;;;37.85;19.50;;;;;;;-0.67;96.81;97289.22;1742827;82;21506;-58
2022/04/03 00:32:05;;;;;;;36.53;18.87;;;;;;;-0.70;96.90;97293.11;1742950;82;21037;-58
2022/04/03 00:34:32;;;;;;;32.33;17.53;;;;;;;-0.74;97.34;97299.94;1743118;81;22066;-58
2022/04/03 00:36:59;;;;;;;27.60;16.23;;;;;;;-0.71;97.57;97298.67;1742945;82;21317;-59
2022/04/03 00:39:26;;;;;;;31.12;16.05;;;;;;;-0.72;97.83;97291.20;1742907;80;21053;-58
2022/04/03 00:41:53;;;;;;;28.57;16.55;;;;;;;-0.66;97.40;97294.83;1743143;82;21006;-58
2022/04/03 00:44:19;;;;;;;36.95;20.35;;;;;;;-0.65;97.51;97298.58;1742978;82;21430;-58
2022/04/03 00:46:47;;;;;;;43.58;20.72;;;;;;;-0.66;97.74;97292.16;1743171;82;21049;-58
2022/04/03 00:49:14;;;;;;;43.20;22.58;;;;;;;-0.60;97.25;97299.22;1743119;80;21034;-58
2022/04/03 00:51:41;;;;;;;49.27;25.62;;;;;;;-0.66;97.76;97300.15;1743319;81;20966;-59
2022/04/03 00:54:08;;;;;;;47.13;26.52;;;;;;;-0.71;97.94;97295.48;1764708;80;21053;-58
2022/04/03 00:56:35;;;;;;;49.08;26.57;;;;;;;-0.71;98.09;97300.81;1773882;80;21532;-58
2022/04/03 00:59:02;;;;;;;47.65;24.50;;;;;;;-0.66;97.78;97303.62;1753325;80;21009;-59
2022/04/03 01:01:28;;;;;;;46.73;25.68;;;;;;;-0.67;97.77;97307.84;1743209;82;21267;-59
2022/04/03 01:03:55;;;;;;;44.42;23.67;;;;;;;-0.71;97.76;97305.32;1743100;82;21033;-58
2022/04/03 01:06:22;;;;;;;50.08;28.20;;;;;;;-0.63;97.60;97311.14;1743219;80;21458;-58
2022/04/03 01:08:50;;;;;;;52.80;29.37;;;;;;;-0.62;97.33;97311.95;1742771;81;22010;-58
2022/04/03 01:11:21;;;;;;;51.10;27.75;;;;;;;-0.66;97.27;97314.27;1743183;82;21014;-58
2022/04/03 01:13:51;;;;;;;54.90;28.40;;;;;;;-0.61;97.16;97311.72;1751742;80;21360;-58
2022/04/03 01:16:18;;;;;;;47.90;27.95;;;;;;;-0.63;97.16;97311.66;1743073;82;21024;-58
2022/04/03 01:18:45;;;;;;;57.17;30.52;;;;;;;-0.62;96.87;97307.95;1743065;82;20997;-58
2022/04/03 01:21:12;;;;;;;53.48;28.73;;;;;;;-0.59;96.65;97311.00;1743117;82;21132;-58
2022/04/03 01:23:40;;;;;;;64.50;31.20;;;;;;;-0.60;96.55;97311.20;1743089;82;21054;-58
2022/04/03 01:26:06;;;;;;;59.83;30.43;;;;;;;-0.59;96.56;97307.01;1743187;80;21034;-58
2022/04/03 01:28:33;;;;;;;64.72;32.10;;;;;;;-0.61;96.66;97314.38;1742930;81;22115;-58
2022/04/03 01:31:00;;;;;;;63.70;33.42;;;;;;;-0.59;96.51;97308.34;1742834;82;21011;-58
2022/04/03 01:33:27;;;;;;;69.55;34.75;;;;;;;-0.71;96.33;97303.98;1743114;81;20998;-59
2022/04/03 01:35:54;;;;;;;67.50;36.80;;;;;;;-0.67;96.46;97309.98;1743392;82;20982;-58
2022/04/03 01:38:21;;;;;;;57.40;32.58;;;;;;;-0.73;96.64;97317.52;1742960;80;21447;-58
2022/04/03 01:40:48;;;;;;;73.25;38.17;;;;;;;-0.74;96.64;97315.91;1743156;81;21010;-58
2022/04/03 01:43:15;;;;;;;68.17;36.35;;;;;;;-0.78;96.10;97313.90;1751887;80;20996;-59
2022/04/03 01:45:42;;;;;;;75.03;37.65;;;;;;;-0.73;96.03;97319.38;1743174;81;21396;-59
2022/04/03 01:48:10;;;;;;;66.65;32.05;;;;;;;-0.78;95.92;97317.89;1742962;81;21017;-58
2022/04/03 01:50:37;;;;;;;75.78;40.98;;;;;;;-0.71;95.91;97319.95;1743263;82;21936;-58
2022/04/03 01:53:04;;;;;;;75.25;38.45;;;;;;;-0.73;95.85;97316.71;1742854;81;20966;-58
2022/04/03 01:55:32;;;;;;;72.72;38.83;;;;;;;-0.73;95.64;97315.38;1746360;80;20966;-58
2022/04/03 01:58:00;;;;;;;64.95;36.50;;;;;;;-0.73;95.67;97316.71;1766610;80;21034;-59
2022/04/03 02:00:27;;;;;;;67.97;33.63;;;;;;;-0.83;95.11;97313.78;1772964;80;21060;-58
2022/04/03 02:02:54;;;;;;;69.70;35.58;;;;;;;-0.87;94.53;97327.51;1767509;80;21675;-58
2022/04/03 02:05:21;;;;;;;73.97;36.58;;;;;;;-0.94;94.45;97332.12;1771214;80;20980;-58
2022/04/03 02:07:48;;;;;;;67.80;34.65;;;;;;;-0.96;94.50;97335.50;1769139;80;20970;-58
2022/04/03 02:10:15;;;;;;;65.97;35.45;;;;;;;-0.92;94.61;97331.89;1742859;81;20978;-58
2022/04/03 02:12:45;;;;;;;75.12;34.03;;;;;;;-0.99;94.43;97337.28;1743193;80;21093;-58
2022/04/03 02:15:12;;;;;;;69.30;33.65;;;;;;;-0.94;94.33;97339.26;1743192;81;21509;-58
2022/04/03 02:17:40;;;;;;;68.52;32.08;;;;;;;-0.90;94.30;97338.61;1742831;82;21077;-59
2022/04/03 02:20:09;;;;;;;61.33;33.42;;;;;;;-0.96;93.85;97341.34;1768392;80;21013;-58
2022/04/03 02:22:36;;;;;;;55.20;29.40;;;;;;;-0.93;93.76;97337.73;1771575;80;20973;-58
2022/04/03 02:25:09;;;;;;;63.95;29.42;;;;;;;-0.94;93.60;97344.58;1742947;82;21438;-58
2022/04/03 02:27:34;;;;;;;64.42;28.20;;;;;;;-1.04;93.27;97348.28;1742671;81;21077;-58
2022/04/03 02:30:01;;;;;;;57.98;28.85;;;;;;;-1.04;93.57;97347.77;1743244;82;21006;-58
2022/04/03 02:32:28;;;;;;;51.05;28.23;;;;;;;-0.99;93.74;97347.11;1743535;80;21470;-59
2022/04/03 02:34:55;;;;;;;56.30;29.18;;;;;;;-1.01;93.52;97355.31;1773795;80;21012;-59
2022/04/03 02:37:21;;;;;;;52.38;29.70;;;;;;;-0.99;93.46;97355.90;1758353;80;20985;-58
2022/04/03 02:39:48;;;;;;;55.60;28.77;;;;;;;-1.03;93.43;97352.05;1743120;82;21629;-58
2022/04/03 02:42:15;;;;;;;53.28;28.20;;;;;;;-1.04;93.46;97356.26;1742983;82;21007;-58
2022/04/03 02:44:42;;;;;;;50.60;25.35;;;;;;;-1.08;93.26;97357.75;1742788;81;21065;-58
2022/04/03 02:47:09;;;;;;;41.83;20.62;;;;;;;-1.15;93.05;97365.27;1743224;82;21010;-58
2022/04/03 02:49:36;;;;;;;42.98;20.75;;;;;;;-1.22;92.67;97359.20;1742934;81;21454;-58
2022/04/03 02:52:03;;;;;;;43.55;20.48;;;;;;;-1.27;92.55;97363.58;1743127;82;21297;-58
2022/04/03 02:54:30;;;;;;;34.95;18.17;;;;;;;-1.29;92.49;97366.44;1742815;81;20978;-58
2022/04/03 02:56:58;;;;;;;40.12;20.25;;;;;;;-1.28;92.31;97367.24;1764836;80;21485;-58
2022/04/03 02:59:24;;;;;;;40.05;19.05;;;;;;;-1.32;91.87;97369.54;1748332;80;20962;-58
2022/04/03 03:01:51;;;;;;;39.60;17.95;;;;;;;-1.34;91.75;97377.45;1743345;82;21061;-58
2022/04/03 03:04:18;;;;;;;36.20;19.77;;;;;;;-1.44;91.23;97374.77;1766734;80;22028;-59
2022/04/03 03:06:45;;;;;;;43.02;20.57;;;;;;;-1.47;91.33;97378.37;1773866;80;20977;-58
2022/04/03 03:09:12;;;;;;;36.33;20.35;;;;;;;-1.50;91.42;97382.28;1759922;80;20994;-58
2022/04/03 03:11:40;;;;;;;36.00;17.35;;;;;;;-1.54;91.47;97388.23;1743373;82;21009;-59
2022/04/03 03:14:07;;;;;;;40.30;17.70;;;;;;;-1.56;91.57;97387.66;1743046;80;21021;-58
2022/04/03 03:16:34;;;;;;;33.10;18.57;;;;;;;-1.57;91.69;97390.83;1743418;82;21681;-58
2022/04/03 03:19:00;;;;;;;32.55;15.28;;;;;;;-1.62;91.28;97392.01;1742959;82;21021;-59
2022/04/03 03:21:28;;;;;;;29.07;16.10;;;;;;;-1.64;91.28;97394.56;1743338;82;21018;-59
2022/04/03 03:23:55;;;;;;;28.45;13.80;;;;;;;-1.65;91.16;97395.59;1742696;81;21069;-58
2022/04/03 03:26:22;;;;;;;25.35;13.10;;;;;;;-1.63;91.36;97397.00;1743157;82;20994;-59
2022/04/03 03:28:49;;;;;;;28.85;14.63;;;;;;;-1.61;91.26;97399.47;1743557;80;21543;-58
2022/04/03 03:31:16;;;;;;;33.38;13.25;;;;;;;-1.62;91.09;97407.95;1742889;82;21052;-58
2022/04/03 03:33:42;;;;;;;22.87;13.15;;;;;;;-1.66;90.85;97412.05;1747708;80;20997;-58
2022/04/03 03:36:09;;;;;;;24.18;12.37;;;;;;;-1.65;90.98;97411.02;1773829;80;20977;-58
2022/04/03 03:38:37;;;;;;;31.20;15.75;;;;;;;-1.69;90.59;97408.52;1756205;80;21471;-58
2022/04/03 03:41:04;;;;;;;20.30;11.97;;;;;;;-1.65;90.88;97409.69;1743181;82;21134;-58
2022/04/03 03:43:30;;;;;;;29.05;13.38;;;;;;;-1.66;90.57;97414.71;1742857;82;21068;-58
2022/04/03 03:45:57;;;;;;;23.30;14.13;;;;;;;-1.67;90.63;97413.61;1743268;82;21006;-59
2022/04/03 03:48:25;;;;;;;27.67;12.90;;;;;;;-1.71;90.60;97414.05;1742796;81;22046;-59
2022/04/03 03:50:52;;;;;;;22.82;13.62;;;;;;;-1.75;90.63;97416.82;1743177;82;21029;-59
2022/04/03 03:53:20;;;;;;;28.60;14.10;;;;;;;-1.77;90.34;97422.06;1742994;81;21059;-59
2022/04/03 03:55:46;;;;;;;26.77;13.75;;;;;;;-1.77;90.50;97425.53;1743308;82;21029;-58
2022/04/03 03:58:13;;;;;;;27.10;12.65;;;;;;;-1.77;90.63;97433.50;1743030;81;21407;-59
2022/04/03 04:00:40;;;;;;;26.48;15.30;;;;;;;-1.75;90.69;97433.28;1743215;82;21020;-58
2022/04/03 04:03:07;;;;;;;33.48;14.38;;;;;;;-1.78;90.39;97439.84;1743162;82;21002;-58
2022/04/03 04:05:35;;;;;;;20.25;11.60;;;;;;;-1.79;90.63;97443.53;1743268;82;21011;-59
2022/04/03 04:08:02;;;;;;;21.87;11.97;;;;;;;-1.83;90.25;97448.14;1743045;81;21014;-59
2022/04/03 04:10:29;;;;;;;28.67;16.42;;;;;;;-1.87;90.05;97452.27;1742953;82;21447;-58
2022/04/03 04:12:56;;;;;;;23.92;14.58;;;;;;;-1.82;90.41;97451.91;1743087;81;21026;-58
2022/04/03 04:15:25;;;;;;;27.35;14.28;;;;;;;-1.80;90.37;97449.03;1743386;82;20990;-59
2022/04/03 04:17:53;;;;;;;98.90;41.53;;;;;;;-1.79;90.46;97458.14;1743492;80;22599;-58
2022/04/03 04:20:21;;;;;;;46.95;23.60;;;;;;;-1.78;90.22;97459.77;1743436;81;21010;-59
2022/04/03 04:22:49;;;;;;;179.10;108.52;;;;;;;-1.73;90.31;97461.77;1743564;82;21024;-59
2022/04/03 04:25:17;;;;;;;106.65;71.72;;;;;;;-1.73;90.28;97466.56;1743346;82;20975;-58
2022/04/03 04:27:44;;;;;;;61.15;39.88;;;;;;;-1.74;90.11;97472.91;1743223;81;21014;-58
2022/04/03 04:30:13;;;;;;;126.45;80.30;;;;;;;-1.72;89.89;97478.00;1743243;82;21442;-58
2022/04/03 04:32:40;;;;;;;44.08;30.00;;;;;;;-1.72;89.97;97478.00;1746389;80;21097;-58
2022/04/03 04:35:08;;;;;;;35.83;18.80;;;;;;;-1.71;89.81;97483.13;1748820;80;22007;-59
2022/04/03 04:37:35;;;;;;;36.87;15.60;;;;;;;-1.83;89.37;97484.00;1743415;82;21021;-59
2022/04/03 04:40:05;;;;;;;45.45;33.95;;;;;;;-1.76;89.63;97490.09;1743317;82;21060;-58
2022/04/03 04:42:32;;;;;;;40.45;30.57;;;;;;;-1.83;89.00;97491.97;1744375;80;21045;-58
2022/04/03 04:44:59;;;;;;;31.23;20.40;;;;;;;-1.86;88.73;97496.39;1750470;80;21420;-58
2022/04/03 04:47:26;;;;;;;34.20;21.23;;;;;;;-1.83;89.05;97501.27;1743209;80;21077;-59
2022/04/03 04:49:53;;;;;;;23.20;15.38;;;;;;;-1.79;89.33;97501.16;1743544;82;21017;-59
2022/04/03 04:52:20;;;;;;;29.52;14.00;;;;;;;-1.80;89.21;97501.64;1743312;81;21294;-58
2022/04/03 04:54:47;;;;;;;37.55;18.45;;;;;;;-1.71;89.58;97506.19;1743219;82;21418;-59
2022/04/03 04:57:14;;;;;;;29.67;14.87;;;;;;;-1.70;89.10;97507.84;1743283;80;21049;-58
2022/04/03 04:59:41;;;;;;;50.70;35.13;;;;;;;-1.78;88.67;97508.09;1762600;80;21005;-58
2022/04/03 05:02:07;;;;;;;31.48;20.95;;;;;;;-1.72;88.99;97507.22;1774054;80;21045;-58
2022/04/03 05:04:34;;;;;;;30.17;17.42;;;;;;;-1.75;88.47;97518.28;1746345;80;21450;-58
2022/04/03 05:07:02;;;;;;;29.00;13.58;;;;;;;-1.77;87.97;97516.36;1743311;82;21079;-58
2022/04/03 05:09:30;;;;;;;28.35;16.07;;;;;;;-1.72;88.10;97517.84;1742825;81;21010;-59
2022/04/03 05:11:57;;;;;;;24.87;14.35;;;;;;;-1.68;87.89;97519.58;1743074;82;20993;-58
2022/04/03 05:14:24;;;;;;;29.15;17.70;;;;;;;-1.75;87.86;97526.25;1742934;81;20992;-59
2022/04/03 05:16:51;;;;;;;22.95;13.18;;;;;;;-1.70;88.12;97527.77;1761009;80;21021;-58
2022/04/03 05:19:18;;;;;;;27.32;19.77;;;;;;;-1.73;87.57;97532.16;1749864;80;21008;-58
2022/04/03 05:21:45;;;;;;;25.35;12.37;;;;;;;-1.68;87.56;97536.84;1749587;80;21009;-58
2022/04/03 05:24:12;;;;;;;51.35;37.90;;;;;;;-1.63;87.93;97540.98;1760285;80;21001;-59
2022/04/03 05:26:39;;;;;;;37.05;26.05;;;;;;;-1.74;87.11;97550.45;1743423;82;20993;-58
2022/04/03 05:29:07;;;;;;;27.42;15.10;;;;;;;-1.80;86.72;97551.30;1743005;80;21053;-58
2022/04/03 05:31:34;;;;;;;27.87;14.78;;;;;;;-1.72;87.29;97555.85;1743615;82;21479;-59
2022/04/03 05:34:01;;;;;;;28.47;18.05;;;;;;;-1.76;86.84;97560.48;1754133;80;20962;-59
2022/04/03 05:36:28;;;;;;;24.05;14.33;;;;;;;-1.84;86.72;97562.87;1770150;80;21001;-59
2022/04/03 05:38:55;;;;;;;44.98;22.90;;;;;;;-1.76;87.11;97569.78;1742830;82;21045;-59
2022/04/03 05:41:22;;;;;;;77.20;45.58;;;;;;;-1.66;87.52;97566.67;1743272;82;21005;-59
2022/04/03 05:43:49;;;;;;;32.38;18.67;;;;;;;-1.68;87.08;97566.89;1760743;80;21033;-58
2022/04/03 05:46:16;;;;;;;36.88;18.25;;;;;;;-1.62;87.25;97571.36;1773851;80;20969;-58
2022/04/03 05:48:43;;;;;;;23.42;12.13;;;;;;;-1.55;87.21;97576.61;1773724;80;21458;-58
2022/04/03 05:51:10;;;;;;;31.02;14.70;;;;;;;-1.54;86.86;97583.06;1773999;80;21005;-58
2022/04/03 05:53:38;;;;;;;90.22;41.08;;;;;;;-1.51;86.60;97584.47;1764521;80;21004;-58
2022/04/03 05:56:05;;;;;;;32.55;15.75;;;;;;;-1.60;86.17;97589.22;1774068;80;21026;-58
2022/04/03 05:58:32;;;;;;;27.48;16.42;;;;;;;-1.56;86.44;97586.42;1759677;80;20979;-58
2022/04/03 06:00:59;;;;;;;23.60;13.38;;;;;;;-1.62;85.61;97591.28;1743269;82;21509;-58
2022/04/03 06:03:26;;;;;;;24.77;12.25;;;;;;;-1.61;85.41;97590.77;1743063;82;21017;-58
2022/04/03 06:05:52;;;;;;;20.08;10.88;;;;;;;-1.55;85.71;97601.34;1743034;82;21364;-59
2022/04/03 06:08:19;;;;;;;22.60;12.68;;;;;;;-1.58;85.48;97596.46;1742975;82;21642;-58
2022/04/03 06:10:47;;;;;;;23.92;15.78;;;;;;;-1.46;85.93;97600.58;1742961;82;21450;-58
2022/04/03 06:13:13;;;;;;;32.98;20.43;;;;;;;-1.40;85.54;97606.38;1742996;82;21053;-59
2022/04/03 06:15:43;;;;;;;20.10;12.00;;;;;;;-1.32;85.29;97606.13;1743395;82;21067;-58
2022/04/03 06:18:12;;;;;;;74.72;43.17;;;;;;;-1.20;85.36;97616.40;1742968;81;21450;-58
2022/04/03 06:20:39;;;;;;;28.85;17.62;;;;;;;-1.24;84.59;97619.69;1743372;82;21684;-58
2022/04/03 06:23:17;;;;;;;28.00;12.93;;;;;;;-1.07;85.17;97616.81;1751473;80;21053;-58
2022/04/03 06:25:44;;;;;;;20.17;13.22;;;;;;;-1.00;84.98;97623.42;1773951;80;21001;-57
2022/04/03 06:28:12;;;;;;;21.90;13.13;;;;;;;-1.38;82.50;97626.91;1772887;80;20990;-57
2022/04/03 06:30:39;;;;;;;17.25;8.50;;;;;;;-1.25;83.55;97633.49;1732698;82;21061;-58
2022/04/03 06:33:05;;;;;;;28.15;12.37;;;;;;;-1.42;83.39;97635.84;1735127;82;22081;-58
2022/04/03 06:35:32;;;;;;;19.82;10.95;;;;;;;-1.33;83.52;97631.09;1743039;81;20994;-58
2022/04/03 06:37:59;;;;;;;18.50;11.00;;;;;;;-1.24;83.82;97629.80;1750128;80;22021;-57
2022/04/03 06:40:26;;;;;;;23.95;14.05;;;;;;;-1.14;84.21;97632.80;1773817;80;20981;-58
2022/04/03 06:42:53;;;;;;;25.70;13.72;;;;;;;-1.08;83.73;97632.47;1773803;80;21673;-58
2022/04/03 06:45:20;;;;;;;21.10;11.45;;;;;;;-0.98;83.36;97635.47;1773795;80;20989;-58
2022/04/03 06:47:47;;;;;;;21.37;12.13;;;;;;;-0.93;82.74;97634.83;1769140;80;21042;-58
2022/04/03 06:50:14;;;;;;;20.20;12.20;;;;;;;-0.78;82.98;97635.83;1743398;82;21052;-58
2022/04/03 06:52:41;;;;;;;20.15;12.68;;;;;;;-0.57;83.58;97640.27;1742919;82;21502;-58
2022/04/03 06:55:09;;;;;;;28.87;15.75;;;;;;;-0.37;83.15;97639.27;1742905;82;20966;-58
2022/04/03 06:57:37;;;;;;;21.45;13.85;;;;;;;-0.36;81.95;97645.70;1744792;80;21416;-58
2022/04/03 07:00:06;;;;;;;18.15;13.28;;;;;;;-0.34;80.49;97650.84;1761447;80;21014;-58
2022/04/03 07:02:33;;;;;;;23.15;12.65;;;;;;;-0.55;80.07;97657.34;1757696;81;22053;-58
2022/04/03 07:05:02;;;;;;;28.32;17.10;;;;;;;-0.58;80.08;97660.45;1766578;80;21057;-58
2022/04/03 07:07:29;;;;;;;19.92;12.98;;;;;;;-0.57;80.33;97664.23;1773176;80;21415;-58
2022/04/03 07:09:56;;;;;;;29.37;16.25;;;;;;;-0.54;80.71;97665.62;1742966;82;21322;-58
2022/04/03 07:12:23;;;;;;;25.25;11.80;;;;;;;-0.42;81.08;97669.75;1743460;81;21010;-58
2022/04/03 07:14:50;;;;;;;17.07;10.88;;;;;;;-0.64;79.40;97673.29;1743010;82;20986;-58
2022/04/03 07:17:17;;;;;;;22.10;11.78;;;;;;;-0.43;80.63;97676.89;1743247;82;20974;-58
2022/04/03 07:19:44;;;;;;;42.75;31.70;;;;;;;-0.48;79.57;97680.73;1742927;82;21018;-58
2022/04/03 07:22:11;;;;;;;22.98;13.10;;;;;;;-0.59;79.33;97691.58;1743307;82;21028;-58
2022/04/03 07:24:37;;;;;;;27.35;15.13;;;;;;;-0.80;78.95;97691.11;1742645;81;21034;-58
2022/04/03 07:27:04;;;;;;;22.95;11.97;;;;;;;-0.81;79.14;97691.63;1743346;82;21054;-58
2022/04/03 07:29:31;;;;;;;23.87;12.15;;;;;;;-0.52;79.94;97691.51;1759689;80;21018;-58
2022/04/03 07:31:58;;;;;;;22.13;12.33;;;;;;;-0.36;79.31;97702.13;1773975;80;21001;-58
2022/04/03 07:34:25;;;;;;;26.37;18.23;;;;;;;-0.17;79.65;97702.50;1764435;80;22062;-58
2022/04/03 07:36:52;;;;;;;25.45;14.60;;;;;;;-0.36;78.11;97706.94;1764779;80;20988;-58
2022/04/03 07:39:20;;;;;;;36.53;23.32;;;;;;;-0.06;79.29;97710.28;1742926;82;21026;-58
2022/04/03 07:41:47;;;;;;;31.95;19.48;;;;;;;-0.09;78.28;97712.03;1743414;82;21022;-58
2022/04/03 07:44:14;;;;;;;25.90;13.32;;;;;;;-0.20;78.43;97718.09;1742961;81;21050;-58
2022/04/03 07:46:41;;;;;;;25.72;13.75;;;;;;;-0.07;78.61;97721.98;1743060;82;22075;-58
2022/04/03 07:49:10;;;;;;;22.67;11.15;;;;;;;0.09;79.38;97721.94;1742834;81;21009;-57
2022/04/03 07:51:37;;;;;;;20.95;12.40;;;;;;;0.12;78.96;97724.16;1743067;82;21463;-58
2022/04/03 07:54:04;;;;;;;19.25;13.13;;;;;;;-0.03;78.05;97731.97;1742981;80;21057;-58
2022/04/03 07:56:31;;;;;;;26.60;15.68;;;;;;;-0.19;77.37;97735.17;1743001;82;21017;-58
2022/04/03 07:58:58;;;;;;;29.05;16.60;;;;;;;-0.24;77.55;97740.88;1751689;80;21083;-58
2022/04/03 08:01:25;;;;;;;25.85;15.80;;;;;;;-0.18;78.15;97742.65;1743005;82;20970;-58
2022/04/03 08:03:52;;;;;;;25.75;14.58;;;;;;;-0.30;76.89;97743.88;1742870;82;21463;-58
2022/04/03 08:06:19;;;;;;;27.77;18.92;;;;;;;-0.22;77.34;97749.45;1743149;82;20951;-58
2022/04/03 08:08:47;;;;;;;26.37;14.63;;;;;;;-0.32;76.70;97750.76;1742466;81;36965;-58
2022/04/03 08:11:14;;;;;;;24.95;12.90;;;;;;;0.06;77.93;97753.00;1743161;82;22089;-58
2022/04/03 08:13:41;;;;;;;23.92;14.78;;;;;;;0.34;78.31;97752.52;1742851;81;21010;-58
2022/04/03 08:16:07;;;;;;;24.32;13.83;;;;;;;0.21;75.89;97760.95;1743172;82;21009;-58
2022/04/03 08:18:34;;;;;;;25.57;15.88;;;;;;;0.59;77.10;97758.61;1742969;81;21073;-58
2022/04/03 08:21:01;;;;;;;23.47;12.78;;;;;;;0.92;76.59;97762.75;1743166;82;21001;-58
2022/04/03 08:23:28;;;;;;;36.48;25.70;;;;;;;1.21;76.14;97761.98;1742787;81;22207;-58
2022/04/03 08:25:55;;;;;;;23.20;12.53;;;;;;;1.17;72.95;97762.12;1743076;82;20986;-58
2022/04/03 08:28:22;;;;;;;22.25;17.05;;;;;;;1.09;72.75;97768.58;1742811;82;20990;-58
2022/04/03 08:30:49;;;;;;;23.10;10.85;;;;;;;1.20;71.40;97771.03;1743124;82;21010;-58
2022/04/03 08:33:16;;;;;;;26.12;18.92;;;;;;;1.26;70.78;97775.97;1743786;81;21537;-58
2022/04/03 08:35:43;;;;;;;18.87;11.95;;;;;;;1.38;72.55;97770.17;1767926;80;21068;-58
2022/04/03 08:38:10;;;;;;;18.87;12.58;;;;;;;1.97;73.58;97777.81;1761849;80;20985;-58
2022/04/03 08:40:37;;;;;;;20.00;11.88;;;;;;;2.19;73.79;97778.86;1743006;82;21001;-58
2022/04/03 08:43:04;;;;;;;28.20;21.62;;;;;;;1.77;68.20;97784.78;1742834;81;21463;-58
2022/04/03 08:45:31;;;;;;;18.40;12.30;;;;;;;1.45;69.82;97787.41;1743117;82;21013;-58
2022/04/03 08:47:59;;;;;;;58.17;40.55;;;;;;;1.43;69.67;97792.17;1743087;81;22084;-58
2022/04/03 08:50:32;;;;;;;19.05;11.85;;;;;;;1.61;69.20;97788.11;1742861;82;21985;-58
2022/04/03 08:53:02;;;;;;;73.45;55.35;;;;;;;1.93;68.81;97801.49;1749662;80;21446;-58
2022/04/03 08:55:30;;;;;;;37.98;20.55;;;;;;;2.15;68.54;97799.09;1773634;80;20993;-58
2022/04/03 08:57:57;;;;;;;57.38;33.23;;;;;;;2.30;71.23;97807.98;1773402;80;21012;-58
2022/04/03 09:00:24;;;;;;;49.33;30.92;;;;;;;1.89;67.08;97812.36;1744938;80;20994;-58
2022/04/03 09:02:51;;;;;;;59.67;38.42;;;;;;;1.89;68.86;97807.54;1743021;80;21002;-58
2022/04/03 09:05:18;;;;;;;46.00;41.20;;;;;;;2.14;68.80;97814.85;1743077;81;20977;-58
2022/04/03 09:08:00;;;;;;;16.97;11.03;;;;;;;2.40;67.11;97812.26;1747277;80;21470;-58
2022/04/03 09:10:27;;;;;;;17.17;11.70;;;;;;;3.57;65.17;97808.52;1743504;80;21017;-58
2022/04/03 09:12:55;;;;;;;18.98;11.70;;;;;;;3.57;63.27;97811.20;1743206;82;21364;-58
2022/04/03 09:15:23;;;;;;;17.02;12.25;;;;;;;3.10;63.19;97818.06;1742983;82;20994;-58
2022/04/03 09:17:58;;;;;;;20.50;10.95;;;;;;;3.06;64.38;97821.72;1743144;81;21034;-58
2022/04/03 09:20:28;;;;;;;22.00;11.30;;;;;;;3.42;66.81;97822.95;1743030;82;21722;-58
2022/04/03 09:23:01;;;;;;;16.75;9.68;;;;;;;3.02;63.57;97825.93;1743095;81;21065;-57
2022/04/03 09:25:35;;;;;;;20.50;11.45;;;;;;;3.34;65.04;97824.17;1741876;82;20991;-58
2022/04/03 09:28:07;;;;;;;19.07;12.68;;;;;;;3.02;62.79;97829.95;1742633;81;21018;-57
2022/04/03 09:30:37;;;;;;;19.07;13.25;;;;;;;3.43;65.78;97829.44;1735976;82;21021;-58
2022/04/03 09:33:09;;;;;;;16.52;11.28;;;;;;;3.75;66.65;97828.94;1773422;80;20970;-58
2022/04/03 09:36:01;;;;;;;21.02;11.20;;;;;;;3.82;66.39;97829.61;1755663;80;21037;-58
2022/04/03 09:38:32;;;;;;;19.62;14.50;;;;;;;3.50;63.26;97839.47;1767277;80;21606;-58
2022/04/03 09:41:00;;;;;;;21.50;12.07;;;;;;;2.94;61.96;97849.05;1742973;82;21030;-58
2022/04/03 09:43:29;;;;;;;23.18;17.62;;;;;;;1.97;63.72;97850.78;1743126;82;21061;-57
2022/04/03 09:46:04;;;;;;;16.60;10.55;;;;;;;2.22;64.67;97852.44;1687022;84;21064;-58
2022/04/03 09:48:41;;;;;;;18.10;10.40;;;;;;;2.68;66.11;97853.55;1742939;82;21491;-58
2022/04/03 09:51:22;;;;;;;23.75;11.45;;;;;;;1.89;63.65;97859.13;1742215;82;21018;-57
2022/04/03 09:53:56;;;;;;;17.50;10.98;;;;;;;1.92;64.62;97860.00;1741580;81;21467;-57
2022/04/03 09:56:37;;;;;;;84.20;32.83;;;;;;;2.24;65.82;97854.38;1742712;82;21407;-57
2022/04/03 09:59:07;;;;;;;18.57;10.45;;;;;;;2.00;65.40;97858.05;1742679;81;20998;-57
2022/04/03 10:01:39;;;;;;;17.35;9.53;;;;;;;2.20;64.42;97863.37;1743348;82;21061;-57
2022/04/03 10:04:13;;;;;;;17.30;10.38;;;;;;;2.74;64.92;97863.33;1742753;81;21384;-57
2022/04/03 10:06:41;;;;;;;19.42;9.65;;;;;;;2.42;64.26;97865.51;1743157;82;21443;-57
2022/04/03 10:09:12;;;;;;;35.98;15.28;;;;;;;2.55;64.94;97867.42;1742799;81;21047;-57
2022/04/03 10:11:40;;;;;;;112.60;42.03;;;;;;;3.04;65.75;97864.50;1752881;80;20981;-57
2022/04/03 10:14:07;;;;;;;53.77;23.07;;;;;;;3.38;65.76;97856.11;1752729;80;21025;-57
2022/04/03 10:16:34;;;;;;;20.02;11.50;;;;;;;3.87;66.30;97859.20;1743140;82;21415;-57
2022/04/03 10:19:01;;;;;;;186.10;63.48;;;;;;;3.85;63.38;97859.45;1751706;80;21490;-57
2022/04/03 10:21:42;;;;;;;41.55;17.90;;;;;;;4.11;64.11;97863.92;1743353;82;21002;-57
2022/04/03 10:24:18;;;;;;;20.52;12.30;;;;;;;3.88;62.59;97859.48;1755459;80;21388;-57
2022/04/03 10:27:05;;;;;;;56.90;23.45;;;;;;;4.08;64.55;97861.70;1774060;80;21017;-57
2022/04/03 10:29:36;;;;;;;32.40;17.32;;;;;;;4.51;64.65;97861.09;1746750;80;21025;-57
2022/04/03 10:32:05;;;;;;;27.10;14.05;;;;;;;4.35;59.16;97863.23;1722668;82;20977;-57
2022/04/03 10:34:46;;;;;;;;;;;;;;;4.13;59.92;97860.47;1745480;82;21399;-57
2022/04/03 10:37:42;;;;;;;17.77;12.15;;;;;;;3.44;59.04;97864.55;1743150;82;20167;-57
2022/04/03 10:40:16;;;;;;;12.63;7.40;;;;;;;2.92;61.04;97864.53;1743077;82;21021;-57
2022/04/03 10:42:53;;;;;;;14.05;8.55;;;;;;;2.45;61.93;97867.19;1746582;80;21204;-57
2022/04/03 10:45:26;;;;;;;16.67;9.05;;;;;;;3.04;61.50;97865.84;1745646;80;20978;-57
2022/04/03 10:48:27;;;;;;;20.50;10.98;;;;;;;3.42;60.66;97863.13;1748865;80;21022;-57
2022/04/03 10:51:09;;;;;;;53.28;25.08;;;;;;;3.79;62.32;97858.25;1773602;80;20974;-57
2022/04/03 10:53:41;;;;;;;21.15;11.78;;;;;;;4.05;62.25;97858.98;1764535;80;20974;-57
2022/04/03 10:56:12;;;;;;;16.85;10.30;;;;;;;4.22;62.55;97859.02;1773656;80;22011;-57
2022/04/03 10:58:46;;;;;;;14.60;8.43;;;;;;;3.94;61.99;97859.87;1756608;80;21010;-56
2022/04/03 11:01:33;;;;;;;27.98;14.87;;;;;;;3.84;60.55;97861.00;1742990;82;21473;-57
2022/04/03 11:04:02;;;;;;;17.80;10.32;;;;;;;3.69;61.21;97866.91;1762730;80;21048;-57
2022/04/03 11:06:32;;;;;;;17.75;11.25;;;;;;;3.21;61.74;97870.77;1773722;80;20984;-57
2022/04/03 11:09:02;;;;;;;18.45;10.03;;;;;;;3.28;62.04;97871.45;1773011;80;21423;-57
2022/04/03 11:11:50;;;;;;;19.48;8.90;;;;;;;3.20;60.41;97869.66;1773332;80;20989;-56
2022/04/03 11:14:51;;;;;;;22.37;10.40;;;;;;;2.55;60.94;97879.45;1751419;80;21002;-55
2022/04/03 11:17:21;;;;;;;13.80;8.58;;;;;;;2.74;62.22;97875.36;1740010;82;21408;-56
2022/04/03 11:19:48;;;;;;;18.23;9.28;;;;;;;2.48;62.62;97876.63;1734914;80;21001;-56
2022/04/03 11:22:17;;;;;;;12.47;8.20;;;;;;;2.91;62.97;97880.83;1743117;82;21360;-56
2022/04/03 11:24:44;;;;;;;42.27;18.82;;;;;;;2.98;61.39;97876.14;1751795;80;21034;-56